Loodiep — A8ZO7 — position and weather

sailwx.info

Track history (hours):
 
Tides and Currents Weather Stations Pressure Air Temp Water Temp Dewpoint Dewpoint Depression Visibility Wind Speed Wind Dir Waves Ship Positions

Loodiep

Last reported at 2015-Mar-23 10:08 UTC. Time now 2015-Mar-27 10:16 UTC.
Position N 38°20' W 010°01'.

Length 108 m; draft 7.3 m.

Type: Cargo ship. MMSI: 636015263.

Date/timePositionNaut miles runAvg speedWind from/ knotsBaromVisibWave heightAir tempDewpointWater temp
2015-Mar-23 10:08N 38°20' W 010°01'  
2015-Mar-19 13:15N 50°31' W 000°04'912.1
2015-Mar-19 12:32N 50°33' E 000°10'1111.4
2015-Mar-19 11:33N 50°36' E 000°26'1010.4
2015-Mar-19 10:34N 50°40' E 000°41'10 9.7
2015-Mar-19 09:33N 50°46' E 000°54'10 9.6
2015-Mar-19 08:29N 50°52' E 001°07'1011.0
2015-Mar-19 07:33N 50°59' E 001°18'1313.3
2015-Mar-19 06:34N 51°08' E 001°34'1312.8
2015-Mar-19 05:33N 51°17' E 001°49'1111.5
2015-Mar-19 04:34N 51°27' E 001°58'1110.1
2015-Mar-19 03:28N 51°35' E 002°10'148 9.8
2015-Mar-18 12:18N 53°30' E 004°44'810.9
2015-Mar-18 11:33N 53°33' E 004°57'1111.1
2015-Mar-18 10:32N 53°36' E 005°15'1110.9
2015-Mar-18 09:33N 53°40' E 005°32'1010.3
2015-Mar-18 08:33N 53°43' E 005°48'10 9.5
2015-Mar-18 07:33N 53°46' E 006°04'3510.3
2015-Mar-18 04:10N 53°55' E 007°01'2 3.5
2015-Mar-18 03:32N 53°56' E 007°04'1110.9
2015-Mar-18 02:33N 53°59' E 007°22'1111.2
2015-Mar-18 01:33N 54°02' E 007°40'1111.3
2015-Mar-18 00:33N 54°02' E 007°59'1211.4
2015-Mar-17 23:33N 54°00' E 008°19'1111.6
2015-Mar-17 22:33N 53°57' E 008°38'9 8.6
2015-Mar-17 21:33N 53°51' E 008°47'8 7.6
2015-Mar-17 20:33N 53°51' E 008°60'6 5.9
2015-Mar-17 19:34N 53°54' E 009°09'3 3.2
2015-Mar-17 18:33N 53°56' E 009°13'8 8.2
2015-Mar-17 17:34N 54°03' E 009°18'22 5.2
2015-Mar-17 13:17N 54°20' E 009°44'5 7.1
2015-Mar-17 12:33N 54°22' E 009°52'7 6.9
2015-Mar-17 11:33N 54°22' E 010°04'3 2.9
2015-Mar-17 10:33N 54°22' E 010°08'1 0.9
2015-Mar-17 09:33N 54°22' E 010°10'3 3.5
2015-Mar-17 08:33N 54°25' E 010°13'9 8.8
2015-Mar-17 07:33N 54°31' E 010°24'12 9.7
2015-Mar-17 06:20N 54°36' E 010°43'1010.2
2015-Mar-17 05:22N 54°36' E 010°60'911.4
2015-Mar-17 04:34N 54°36' E 011°16'1110.5
2015-Mar-17 03:33N 54°30' E 011°31'1010.4
2015-Mar-17 02:33N 54°26' E 011°48'1010.3
2015-Mar-17 01:34N 54°26' E 012°05'12 9.7
2015-Mar-17 00:17N 54°37' E 012°16'1910.3
2015-Mar-16 22:26N 54°48' E 012°43'2210.4
2015-Mar-16 20:16N 54°46' E 013°22'710.2
2015-Mar-16 19:33N 54°46' E 013°35'1310.5
2015-Mar-16 18:18N 54°43' E 013°57'810.6
2015-Mar-16 17:33N 54°40' E 014°10'1110.6
2015-Mar-16 16:33N 54°38' E 014°28'1010.4
2015-Mar-16 15:33N 54°40' E 014°46'1110.5
2015-Mar-16 14:33N 54°41' E 015°04'1010.3
2015-Mar-16 13:33N 54°43' E 015°21'1310.1
2015-Mar-16 12:19N 54°45' E 015°43'8210.4
2015-Mar-16 04:24N 54°59' E 018°03'2010.6
2015-Mar-16 02:33N 54°59' E 018°37'1111.0
2015-Mar-16 01:33N 54°55' E 018°55'1510.9
2015-Mar-16 00:13N 54°50' E 019°19'710.7
2015-Mar-15 23:33N 54°47' E 019°31'1110.7
2015-Mar-15 22:31N 54°41' E 019°47'4 0.5
2015-Mar-15 14:31N 54°39' E 019°52'5 5.5
2015-Mar-15 13:32N 54°41' E 019°44'1 1.2
2015-Mar-15 12:33N 54°40' E 019°42'2 1.5
2015-Mar-15 11:33N 54°42' E 019°43'9 8.6
2015-Mar-15 10:32N 54°50' E 019°37'11 9.7
2015-Mar-15 09:21N 55°01' E 019°38'29710.0
2015-Mar-14 03:33N 59°35' E 023°08'1010.3
2015-Mar-14 02:33N 59°38' E 023°28'1010.2
2015-Mar-14 01:33N 59°41' E 023°47'1110.2
2015-Mar-14 00:27N 59°44' E 024°08'910.2
2015-Mar-13 23:33N 59°47' E 024°26'1410.2
2015-Mar-13 22:10N 59°50' E 024°53'810.3
2015-Mar-13 21:26N 59°51' E 025°08'910.4
2015-Mar-13 20:32N 59°53' E 025°27'1010.3
2015-Mar-13 19:33N 59°55' E 025°46'1010.1
2015-Mar-13 18:33N 60°01' E 026°02'1010.4
2015-Mar-13 17:33N 60°08' E 026°16'1010.3
2015-Mar-13 16:33N 60°16' E 026°30'1110.6
2015-Mar-13 15:33N 60°23' E 026°47'5 4.8
2015-Mar-13 14:33N 60°25' E 026°55'0 0.0
2015-Mar-13 13:33N 60°25' E 026°55'0 0.0
2015-Mar-13 12:33N 60°25' E 026°55'0 0.0
2015-Mar-13 11:33N 60°25' E 026°55'0 0.0
2015-Mar-13 10:33N 60°25' E 026°55'  
Track history (hours):
 
Tides and Currents Weather Stations Pressure Air Temp Water Temp Dewpoint Dewpoint Depression Visibility Wind Speed Wind Dir Waves Ship Positions

Loodiep

Last reported at 2015-Mar-23 10:08 UTC. Time now 2015-Mar-27 10:16 UTC.
Position N 38°20' W 010°01'.

Length 108 m; draft 7.3 m.

Type: Cargo ship. MMSI: 636015263.

Date/timePositionNaut miles runAvg speedWind from/ knotsBaromVisibWave heightAir tempDewpointWater temp
2015-Mar-23 10:08N 38°20' W 010°01'  
2015-Mar-19 13:15N 50°31' W 000°04'912.1
2015-Mar-19 12:32N 50°33' E 000°10'1111.4
2015-Mar-19 11:33N 50°36' E 000°26'1010.4
2015-Mar-19 10:34N 50°40' E 000°41'10 9.7
2015-Mar-19 09:33N 50°46' E 000°54'10 9.6
2015-Mar-19 08:29N 50°52' E 001°07'1011.0
2015-Mar-19 07:33N 50°59' E 001°18'1313.3
2015-Mar-19 06:34N 51°08' E 001°34'1312.8
2015-Mar-19 05:33N 51°17' E 001°49'1111.5
2015-Mar-19 04:34N 51°27' E 001°58'1110.1
2015-Mar-19 03:28N 51°35' E 002°10'148 9.8
2015-Mar-18 12:18N 53°30' E 004°44'810.9
2015-Mar-18 11:33N 53°33' E 004°57'1111.1
2015-Mar-18 10:32N 53°36' E 005°15'1110.9
2015-Mar-18 09:33N 53°40' E 005°32'1010.3
2015-Mar-18 08:33N 53°43' E 005°48'10 9.5
2015-Mar-18 07:33N 53°46' E 006°04'3510.3
2015-Mar-18 04:10N 53°55' E 007°01'2 3.5
2015-Mar-18 03:32N 53°56' E 007°04'1110.9
2015-Mar-18 02:33N 53°59' E 007°22'1111.2
2015-Mar-18 01:33N 54°02' E 007°40'1111.3
2015-Mar-18 00:33N 54°02' E 007°59'1211.4
2015-Mar-17 23:33N 54°00' E 008°19'1111.6
2015-Mar-17 22:33N 53°57' E 008°38'9 8.6
2015-Mar-17 21:33N 53°51' E 008°47'8 7.6
2015-Mar-17 20:33N 53°51' E 008°60'6 5.9
2015-Mar-17 19:34N 53°54' E 009°09'3 3.2
2015-Mar-17 18:33N 53°56' E 009°13'8 8.2
2015-Mar-17 17:34N 54°03' E 009°18'22 5.2
2015-Mar-17 13:17N 54°20' E 009°44'5 7.1
2015-Mar-17 12:33N 54°22' E 009°52'7 6.9
2015-Mar-17 11:33N 54°22' E 010°04'3 2.9
2015-Mar-17 10:33N 54°22' E 010°08'1 0.9
2015-Mar-17 09:33N 54°22' E 010°10'3 3.5
2015-Mar-17 08:33N 54°25' E 010°13'9 8.8
2015-Mar-17 07:33N 54°31' E 010°24'12 9.7
2015-Mar-17 06:20N 54°36' E 010°43'1010.2
2015-Mar-17 05:22N 54°36' E 010°60'911.4
2015-Mar-17 04:34N 54°36' E 011°16'1110.5
2015-Mar-17 03:33N 54°30' E 011°31'1010.4
2015-Mar-17 02:33N 54°26' E 011°48'1010.3
2015-Mar-17 01:34N 54°26' E 012°05'12 9.7
2015-Mar-17 00:17N 54°37' E 012°16'1910.3
2015-Mar-16 22:26N 54°48' E 012°43'2210.4
2015-Mar-16 20:16N 54°46' E 013°22'710.2
2015-Mar-16 19:33N 54°46' E 013°35'1310.5
2015-Mar-16 18:18N 54°43' E 013°57'810.6
2015-Mar-16 17:33N 54°40' E 014°10'1110.6
2015-Mar-16 16:33N 54°38' E 014°28'1010.4
2015-Mar-16 15:33N 54°40' E 014°46'1110.5
2015-Mar-16 14:33N 54°41' E 015°04'1010.3
2015-Mar-16 13:33N 54°43' E 015°21'1310.1
2015-Mar-16 12:19N 54°45' E 015°43'8210.4
2015-Mar-16 04:24N 54°59' E 018°03'2010.6
2015-Mar-16 02:33N 54°59' E 018°37'1111.0
2015-Mar-16 01:33N 54°55' E 018°55'1510.9
2015-Mar-16 00:13N 54°50' E 019°19'710.7
2015-Mar-15 23:33N 54°47' E 019°31'1110.7
2015-Mar-15 22:31N 54°41' E 019°47'4 0.5
2015-Mar-15 14:31N 54°39' E 019°52'5 5.5
2015-Mar-15 13:32N 54°41' E 019°44'1 1.2
2015-Mar-15 12:33N 54°40' E 019°42'2 1.5
2015-Mar-15 11:33N 54°42' E 019°43'9 8.6
2015-Mar-15 10:32N 54°50' E 019°37'11 9.7
2015-Mar-15 09:21N 55°01' E 019°38'29710.0
2015-Mar-14 03:33N 59°35' E 023°08'1010.3
2015-Mar-14 02:33N 59°38' E 023°28'1010.2
2015-Mar-14 01:33N 59°41' E 023°47'1110.2
2015-Mar-14 00:27N 59°44' E 024°08'910.2
2015-Mar-13 23:33N 59°47' E 024°26'1410.2
2015-Mar-13 22:10N 59°50' E 024°53'810.3
2015-Mar-13 21:26N 59°51' E 025°08'910.4
2015-Mar-13 20:32N 59°53' E 025°27'1010.3
2015-Mar-13 19:33N 59°55' E 025°46'1010.1
2015-Mar-13 18:33N 60°01' E 026°02'1010.4
2015-Mar-13 17:33N 60°08' E 026°16'1010.3
2015-Mar-13 16:33N 60°16' E 026°30'1110.6
2015-Mar-13 15:33N 60°23' E 026°47'5 4.8
2015-Mar-13 14:33N 60°25' E 026°55'0 0.0
2015-Mar-13 13:33N 60°25' E 026°55'0 0.0
2015-Mar-13 12:33N 60°25' E 026°55'0 0.0
2015-Mar-13 11:33N 60°25' E 026°55'0 0.0
2015-Mar-13 10:33N 60°25' E 026°55'  

Dump ship's entire track history